createdAt,value
2022-08-22T00:00:14.786Z,98052.16
2022-08-22T00:02:56.070Z,97956.44
2022-08-22T00:02:58.606Z,97965.38
2022-08-22T00:02:59.906Z,97963.63
2022-08-22T00:06:18.883Z,98044.25
2022-08-22T00:09:11.462Z,98057.13
2022-08-22T00:12:21.516Z,98051.81
2022-08-22T00:15:04.675Z,98060.13
2022-08-22T00:17:52.442Z,98049.81
2022-08-22T00:20:40.159Z,98046.06
2022-08-22T00:23:21.441Z,98054.03
2022-08-22T00:26:02.665Z,98046.47
2022-08-22T00:28:47.338Z,98050.94
2022-08-22T00:31:32.076Z,98053.81
2022-08-22T00:34:12.478Z,98047.84
2022-08-22T00:36:52.885Z,98048.97
2022-08-22T00:39:25.441Z,98043.13
2022-08-22T00:42:31.232Z,98052.81
2022-08-22T00:45:30.022Z,98057.13
2022-08-22T00:48:38.326Z,98053.44
2022-08-22T00:51:17.137Z,98051.59
2022-08-22T00:54:24.821Z,98056.63
2022-08-22T00:57:42.975Z,98057.44
2022-08-22T01:00:16.593Z,98056.38
2022-08-22T01:03:21.401Z,98042.25
2022-08-22T01:06:10.043Z,98050.72
2022-08-22T01:09:01.607Z,98050.41
2022-08-22T01:12:05.726Z,98048.00
2022-08-22T01:14:55.843Z,98042.72
2022-08-22T01:17:39.235Z,98045.31
2022-08-22T01:20:43.696Z,98043.72
2022-08-22T01:23:32.014Z,98042.00
2022-08-22T01:26:46.224Z,98046.19
2022-08-22T01:30:03.445Z,98050.94
2022-08-22T01:32:31.664Z,98048.22
2022-08-22T01:35:51.367Z,98051.41
2022-08-22T01:38:40.192Z,98042.88
2022-08-22T01:41:25.808Z,98050.28
2022-08-22T01:44:21.751Z,98049.16
2022-08-22T01:47:12.271Z,98050.72
2022-08-22T01:49:55.994Z,98052.31
2022-08-22T01:52:46.352Z,98055.16
2022-08-22T01:55:21.735Z,98044.22
2022-08-22T01:58:25.344Z,98047.28
2022-08-22T02:01:20.176Z,98054.19
2022-08-22T02:04:24.520Z,98054.59
2022-08-22T02:07:08.750Z,98052.00
2022-08-22T02:09:38.882Z,98057.53
2022-08-22T02:12:22.668Z,98061.25
2022-08-22T02:15:05.733Z,98060.47
2022-08-22T02:17:48.461Z,98054.28
2022-08-22T02:20:44.566Z,98049.97
2022-08-22T02:23:52.448Z,98052.75
2022-08-22T02:27:07.553Z,98060.66
2022-08-22T02:30:14.957Z,98058.94
2022-08-22T02:32:41.869Z,98064.97
2022-08-22T02:35:47.616Z,98059.28
2022-08-22T02:38:43.043Z,98052.59
2022-08-22T02:41:31.374Z,98059.66
2022-08-22T02:44:26.955Z,98063.28
2022-08-22T02:47:06.940Z,98058.72
2022-08-22T02:49:49.134Z,98054.94
2022-08-22T02:52:33.631Z,98059.75
2022-08-22T02:55:16.498Z,98059.28
2022-08-22T02:58:12.115Z,98053.66
2022-08-22T03:00:51.267Z,98062.47
2022-08-22T03:03:29.015Z,98058.47
2022-08-22T03:06:35.024Z,98061.13
2022-08-22T03:09:07.765Z,98068.03
2022-08-22T03:11:42.945Z,98070.13
2022-08-22T03:14:24.413Z,98062.66
2022-08-22T03:17:06.263Z,98073.75
2022-08-22T03:20:12.210Z,98062.06
2022-08-22T03:22:53.384Z,98061.91
2022-08-22T03:25:37.549Z,98068.34
2022-08-22T03:28:21.680Z,98067.75
2022-08-22T03:30:51.557Z,98073.03
2022-08-22T03:33:25.050Z,98066.75
2022-08-22T03:36:14.737Z,98075.09
2022-08-22T03:39:17.050Z,98075.56
2022-08-22T03:41:59.244Z,98077.16
2022-08-22T03:45:00.139Z,98074.75
2022-08-22T03:48:03.740Z,98077.44
2022-08-22T03:50:59.724Z,98070.22
2022-08-22T03:54:21.012Z,98077.88
2022-08-22T03:57:25.016Z,98078.53
2022-08-22T04:00:04.500Z,98090.03
2022-08-22T04:03:09.626Z,98089.22
2022-08-22T04:05:54.402Z,98092.38
2022-08-22T04:09:08.904Z,98094.88
2022-08-22T04:12:00.332Z,98098.47
2022-08-22T04:14:54.786Z,98102.66
2022-08-22T04:17:53.290Z,98093.66
2022-08-22T04:20:44.372Z,98094.41
2022-08-22T04:23:27.884Z,98098.75
2022-08-22T04:26:12.179Z,98095.06
2022-08-22T04:28:53.430Z,98097.56
2022-08-22T04:31:36.685Z,98087.94
2022-08-22T04:34:41.284Z,98094.28
2022-08-22T04:37:25.404Z,98092.53
2022-08-22T04:40:26.151Z,98106.72
2022-08-22T04:43:03.646Z,98106.47
2022-08-22T04:45:54.195Z,98101.31
2022-08-22T04:48:37.740Z,98108.34
2022-08-22T04:51:33.339Z,98104.91
2022-08-22T04:54:20.467Z,98105.91
2022-08-22T04:57:36.336Z,98102.88
2022-08-22T05:00:11.259Z,98107.13
2022-08-22T05:02:48.326Z,98107.06
2022-08-22T05:05:27.268Z,98110.00
2022-08-22T05:08:01.403Z,98107.06
2022-08-22T05:10:43.375Z,98120.59
2022-08-22T05:13:36.609Z,98117.25
2022-08-22T05:16:14.760Z,98116.44
2022-08-22T05:19:17.965Z,98117.91
2022-08-22T05:21:50.775Z,98123.69
2022-08-22T05:24:44.971Z,98119.66
2022-08-22T05:27:31.302Z,98133.09
2022-08-22T05:30:11.793Z,98140.22
2022-08-22T05:33:13.012Z,98144.25
2022-08-22T05:36:10.260Z,98132.38
2022-08-22T05:38:48.133Z,98128.84
2022-08-22T05:41:23.950Z,98134.00
2022-08-22T05:43:53.753Z,98122.81
2022-08-22T05:46:40.755Z,98139.03
2022-08-22T05:49:19.355Z,98140.13
2022-08-22T05:52:31.203Z,98135.38
2022-08-22T05:55:27.367Z,98138.25
2022-08-22T05:58:33.232Z,98131.28
2022-08-22T06:01:19.236Z,98142.91
2022-08-22T06:04:14.033Z,98142.22
2022-08-22T06:07:04.863Z,98139.16
2022-08-22T06:10:07.607Z,98142.94
2022-08-22T06:13:06.032Z,98142.84
2022-08-22T06:16:11.361Z,98145.03
2022-08-22T06:18:45.871Z,98146.72
2022-08-22T06:21:41.940Z,98147.28
2022-08-22T06:24:25.992Z,98151.00
2022-08-22T06:27:04.199Z,98145.41
2022-08-22T06:29:45.921Z,98160.34
2022-08-22T06:32:59.268Z,98151.28
2022-08-22T06:36:11.402Z,98160.19
2022-08-22T06:39:03.265Z,98152.72
2022-08-22T06:41:36.297Z,98150.56
2022-08-22T06:44:08.052Z,98148.81
2022-08-22T06:46:38.359Z,98143.41
2022-08-22T06:49:09.714Z,98148.38
2022-08-22T06:51:39.433Z,98139.75
2022-08-22T06:54:25.483Z,98142.53
2022-08-22T06:56:56.062Z,98138.66
2022-08-22T06:59:38.328Z,98140.38
2022-08-22T07:02:26.434Z,98147.13
2022-08-22T07:04:53.780Z,98145.41
2022-08-22T07:07:27.130Z,98126.78
2022-08-22T07:09:57.501Z,98143.91
2022-08-22T07:12:37.934Z,98148.44
2022-08-22T07:15:36.671Z,98152.00
2022-08-22T07:18:16.444Z,98140.28
2022-08-22T07:20:54.545Z,98142.78
2022-08-22T07:23:44.637Z,98141.53
2022-08-22T07:26:29.540Z,98146.91
2022-08-22T07:29:17.137Z,98138.41
2022-08-22T07:32:00.213Z,98145.38
2022-08-22T07:35:17.794Z,98138.19
2022-08-22T07:37:57.126Z,98141.91
2022-08-22T07:41:05.483Z,98147.78
2022-08-22T07:43:45.968Z,98143.00
2022-08-22T07:46:34.180Z,98143.00
2022-08-22T07:49:21.940Z,98154.47
2022-08-22T07:52:01.092Z,98138.41
2022-08-22T07:54:43.171Z,98146.94
2022-08-22T07:57:28.793Z,98140.75
2022-08-22T08:00:00.332Z,98139.41
2022-08-22T08:02:29.809Z,98137.19
2022-08-22T08:05:00.529Z,98140.63
2022-08-22T08:07:29.314Z,98138.75
2022-08-22T08:10:12.752Z,98129.38
2022-08-22T08:12:58.022Z,98137.03
2022-08-22T08:15:35.145Z,98135.91
2022-08-22T08:18:22.031Z,98133.19
2022-08-22T08:21:05.199Z,98133.69
2022-08-22T08:23:41.212Z,98132.00
2022-08-22T08:26:18.750Z,98141.50
2022-08-22T08:28:52.112Z,98137.06
2022-08-22T08:31:43.047Z,98130.34
2022-08-22T08:34:25.119Z,98129.41
2022-08-22T08:37:22.462Z,98127.75
2022-08-22T08:39:59.511Z,98128.78
2022-08-22T08:43:05.661Z,98137.22
2022-08-22T08:46:02.596Z,98126.84
2022-08-22T08:49:07.530Z,98124.41
2022-08-22T08:52:06.241Z,98139.50
2022-08-22T08:55:21.997Z,98131.34
2022-08-22T08:58:48.820Z,98132.38
2022-08-22T09:01:58.603Z,98135.50
2022-08-22T09:05:14.883Z,98132.25
2022-08-22T09:08:28.024Z,98126.38
2022-08-22T09:11:38.833Z,98123.47
2022-08-22T09:14:14.348Z,98120.19
2022-08-22T09:16:48.150Z,98118.59
2022-08-22T09:19:24.500Z,98117.28
2022-08-22T09:22:14.625Z,98111.75
2022-08-22T09:24:48.408Z,98126.84
2022-08-22T09:27:57.239Z,98118.22
2022-08-22T09:30:54.152Z,98119.00
2022-08-22T09:33:49.861Z,98123.44
2022-08-22T09:36:33.550Z,98114.44
2022-08-22T09:39:33.235Z,98119.94
2022-08-22T09:42:20.047Z,98111.56
2022-08-22T09:45:07.243Z,98117.00
2022-08-22T09:47:51.188Z,98118.94
2022-08-22T09:50:24.817Z,98125.13
2022-08-22T09:53:40.052Z,98120.22
2022-08-22T09:56:19.878Z,98118.56
2022-08-22T09:59:07.018Z,98116.56
2022-08-22T10:01:55.243Z,98113.28
2022-08-22T10:04:54.479Z,98110.75
2022-08-22T10:08:07.756Z,98107.91
2022-08-22T10:10:54.691Z,98120.97
2022-08-22T10:13:47.255Z,98121.75
2022-08-22T10:16:53.943Z,98127.13
2022-08-22T10:19:47.806Z,98126.03
2022-08-22T10:22:30.232Z,98125.00
2022-08-22T10:25:42.222Z,98126.97
2022-08-22T10:28:28.630Z,98124.06
2022-08-22T10:30:55.493Z,98130.16
2022-08-22T10:33:33.390Z,98129.47
2022-08-22T10:36:13.116Z,98120.28
2022-08-22T10:38:54.948Z,98118.78
2022-08-22T10:41:33.983Z,98139.78
2022-08-22T10:44:30.374Z,98134.94
2022-08-22T10:47:18.087Z,98122.91
2022-08-22T10:49:56.989Z,98142.19
2022-08-22T10:52:35.147Z,98137.97
2022-08-22T10:55:25.097Z,98139.75
2022-08-22T10:58:15.530Z,98138.22
2022-08-22T11:01:37.084Z,98132.16
2022-08-22T11:04:28.518Z,98127.41
2022-08-22T11:07:42.422Z,98124.63
2022-08-22T11:10:40.991Z,98122.19
2022-08-22T11:13:30.732Z,98122.00
2022-08-22T11:17:32.274Z,98121.56
2022-08-22T11:20:21.462Z,98108.63
2022-08-22T11:23:15.886Z,98104.66
2022-08-22T11:26:33.666Z,98105.69
2022-08-22T11:30:02.225Z,98098.00
2022-08-22T11:33:09.583Z,98095.16
2022-08-22T11:35:54.499Z,98097.44
2022-08-22T11:38:55.932Z,98091.13
2022-08-22T11:41:52.227Z,98085.97
2022-08-22T11:44:34.475Z,98075.13
2022-08-22T11:47:15.986Z,98074.25
2022-08-22T11:50:35.185Z,98081.22
2022-08-22T11:53:40.753Z,98080.59
2022-08-22T11:56:37.013Z,98076.00
2022-08-22T11:59:32.801Z,98060.25
2022-08-22T12:02:52.056Z,98065.38
2022-08-22T12:05:47.183Z,98069.22
2022-08-22T12:08:52.379Z,98075.00
2022-08-22T12:11:46.775Z,98059.63
2022-08-22T12:14:42.895Z,98058.78
2022-08-22T12:17:55.065Z,98056.09
2022-08-22T12:20:33.026Z,98050.91
2022-08-22T12:23:48.818Z,98033.75
2022-08-22T12:26:54.848Z,98031.19
2022-08-22T12:29:57.678Z,98028.91
2022-08-22T12:33:22.944Z,98026.41
2022-08-22T12:36:18.385Z,98027.47
2022-08-22T12:39:07.685Z,98032.66
2022-08-22T12:41:46.783Z,98024.91
2022-08-22T12:44:29.115Z,98026.22
2022-08-22T12:47:34.308Z,98025.59
2022-08-22T12:50:29.118Z,98020.38
2022-08-22T12:53:23.364Z,98016.44
2022-08-22T12:56:03.510Z,98017.97
2022-08-22T12:59:01.042Z,98020.03
2022-08-22T13:01:43.437Z,98009.78
2022-08-22T13:04:34.762Z,98022.22
2022-08-22T13:07:06.055Z,98010.47
2022-08-22T13:09:39.488Z,98000.88
2022-08-22T13:12:47.548Z,98006.09
2022-08-22T13:15:42.689Z,98000.38
2022-08-22T13:18:30.026Z,97999.97
2022-08-22T13:21:04.209Z,98018.66
2022-08-22T13:23:47.054Z,97995.16
2022-08-22T13:26:32.048Z,98007.97
2022-08-22T13:29:26.069Z,97995.97
2022-08-22T13:32:00.611Z,98002.09
2022-08-22T13:34:43.629Z,98007.22
2022-08-22T13:37:36.820Z,98011.63
2022-08-22T13:40:15.803Z,98004.84
2022-08-22T13:42:54.130Z,98005.00
2022-08-22T13:45:31.304Z,98002.28
2022-08-22T13:48:14.392Z,98015.13
2022-08-22T13:51:37.893Z,98002.28
2022-08-22T13:54:12.146Z,98011.63
2022-08-22T13:56:53.622Z,98005.44
2022-08-22T14:00:05.850Z,98000.97
2022-08-22T14:02:58.281Z,98006.75
2022-08-22T14:05:54.979Z,98003.13
2022-08-22T14:08:34.575Z,97993.53
2022-08-22T14:11:20.450Z,97985.28
2022-08-22T14:14:04.045Z,97991.97
2022-08-22T14:17:00.885Z,97995.63
2022-08-22T14:19:53.076Z,97995.09
2022-08-22T14:22:32.267Z,97980.31
2022-08-22T14:25:09.443Z,97983.66
2022-08-22T14:27:52.537Z,97991.31
2022-08-22T14:30:28.539Z,98001.13
2022-08-22T14:33:24.724Z,97989.78
2022-08-22T14:35:58.443Z,97996.19
2022-08-22T14:38:31.731Z,97994.34
2022-08-22T14:41:21.159Z,97996.00
2022-08-22T14:44:01.961Z,97994.31
2022-08-22T14:46:49.448Z,97981.47
2022-08-22T14:49:19.376Z,97984.94
2022-08-22T14:52:00.503Z,97989.53
2022-08-22T14:54:31.166Z,97982.38
2022-08-22T14:57:03.849Z,97981.66
2022-08-22T14:59:50.110Z,97995.31
2022-08-22T15:02:30.655Z,97989.81
2022-08-22T15:05:14.929Z,97991.88
2022-08-22T15:07:43.058Z,97983.16
2022-08-22T15:10:31.783Z,97987.88
2022-08-22T15:13:10.232Z,97982.00
2022-08-22T15:15:53.337Z,97979.78
2022-08-22T15:18:27.758Z,97989.63
2022-08-22T15:21:21.080Z,97976.13
2022-08-22T15:23:59.479Z,97978.84
2022-08-22T15:26:39.764Z,97973.59
2022-08-22T15:29:18.442Z,97973.41
2022-08-22T15:31:57.963Z,97971.16
2022-08-22T15:34:41.940Z,97970.47
2022-08-22T15:37:18.250Z,97976.50
2022-08-22T15:40:14.344Z,97976.00
2022-08-22T15:42:51.483Z,97966.47
2022-08-22T15:45:33.905Z,97955.19
2022-08-22T15:48:08.012Z,97966.38
2022-08-22T15:50:59.708Z,97963.56
2022-08-22T15:54:01.722Z,97959.97
2022-08-22T15:56:35.389Z,97964.53
2022-08-22T15:59:53.746Z,97972.97
2022-08-22T16:02:35.484Z,97968.50
2022-08-22T16:05:11.731Z,97959.56
2022-08-22T16:07:57.532Z,97959.19
2022-08-22T16:10:24.275Z,97963.47
2022-08-22T16:13:31.125Z,97964.38
2022-08-22T16:16:11.971Z,97955.19
2022-08-22T16:18:42.770Z,97960.75
2022-08-22T16:21:22.930Z,97954.72
2022-08-22T16:23:58.705Z,97961.97
2022-08-22T16:26:31.716Z,97954.41
2022-08-22T16:29:14.698Z,97962.97
2022-08-22T16:31:44.796Z,97955.13
2022-08-22T16:34:20.534Z,97959.69
2022-08-22T16:37:09.194Z,97955.69
2022-08-22T16:40:18.531Z,97962.13
2022-08-22T16:43:12.023Z,97960.41
2022-08-22T16:45:45.761Z,97970.63
2022-08-22T16:48:33.384Z,97963.81
2022-08-22T16:51:18.735Z,97953.34
2022-08-22T16:54:13.486Z,97965.41
2022-08-22T16:56:51.416Z,97957.88
2022-08-22T16:59:40.797Z,97963.00
2022-08-22T17:02:34.052Z,97952.09
2022-08-22T17:05:35.445Z,97964.53
2022-08-22T17:08:26.977Z,97963.44
2022-08-22T17:11:22.477Z,97962.78
2022-08-22T17:14:34.122Z,97968.22
2022-08-22T17:17:10.052Z,97973.44
2022-08-22T17:19:45.923Z,97973.13
2022-08-22T17:22:32.003Z,97966.88
2022-08-22T17:25:14.125Z,97970.25
2022-08-22T17:27:47.284Z,97971.75
2022-08-22T17:30:46.166Z,97978.81
2022-08-22T17:33:30.149Z,97967.41
2022-08-22T17:36:06.458Z,97977.09
2022-08-22T17:39:29.053Z,97976.22
2022-08-22T17:42:38.266Z,97979.47
2022-08-22T17:45:42.290Z,97975.66
2022-08-22T17:48:50.057Z,97996.97
2022-08-22T17:51:43.249Z,97985.34
2022-08-22T17:54:29.712Z,97993.31
2022-08-22T17:57:19.828Z,97999.22
2022-08-22T18:00:16.432Z,97999.22
2022-08-22T18:03:06.882Z,98004.78
2022-08-22T18:05:51.159Z,98003.78
2022-08-22T18:08:38.092Z,97993.16
2022-08-22T18:11:28.831Z,97998.97
2022-08-22T18:14:19.291Z,98005.03
2022-08-22T18:16:52.807Z,98011.41
2022-08-22T18:19:57.768Z,98008.69
2022-08-22T18:22:48.694Z,98005.78
2022-08-22T18:25:18.709Z,98013.38
2022-08-22T18:28:00.835Z,98024.19
2022-08-22T18:30:53.273Z,98027.84
2022-08-22T18:33:40.900Z,98015.97
2022-08-22T18:36:14.767Z,98031.22
2022-08-22T18:39:24.994Z,98028.50
2022-08-22T18:42:31.221Z,98033.38
2022-08-22T18:44:58.189Z,98026.66
2022-08-22T18:47:32.842Z,98036.53
2022-08-22T18:50:23.819Z,98034.50
2022-08-22T18:52:53.467Z,98048.75
2022-08-22T18:55:50.196Z,98049.28
2022-08-22T18:59:05.808Z,98049.91
2022-08-22T19:02:09.750Z,98063.56
2022-08-22T19:05:15.005Z,98068.41
2022-08-22T19:08:00.366Z,98065.22
2022-08-22T19:11:03.420Z,98061.81
2022-08-22T19:14:08.917Z,98074.91
2022-08-22T19:17:03.452Z,98068.50
2022-08-22T19:20:21.137Z,98064.31
2022-08-22T19:22:51.041Z,98070.47
2022-08-22T19:25:18.342Z,98087.28
2022-08-22T19:28:09.712Z,98084.13
2022-08-22T19:30:48.593Z,98076.38
2022-08-22T19:33:41.936Z,98066.81
2022-08-22T19:36:30.791Z,98082.91
2022-08-22T19:39:04.426Z,98093.03
2022-08-22T19:41:56.852Z,98082.94
2022-08-22T19:44:23.733Z,98080.78
2022-08-22T19:47:18.492Z,98072.81
2022-08-22T19:50:00.341Z,98079.25
2022-08-22T19:52:32.851Z,98086.75
2022-08-22T19:55:21.389Z,98096.84
2022-08-22T19:58:31.030Z,98093.38
2022-08-22T20:01:49.056Z,98095.00
2022-08-22T20:04:48.811Z,98083.53
2022-08-22T20:07:29.814Z,98095.28
2022-08-22T20:10:20.188Z,98100.59
2022-08-22T20:12:59.768Z,98097.41
2022-08-22T20:15:30.466Z,98097.38
2022-08-22T20:18:47.432Z,98096.31
2022-08-22T20:21:00.331Z,98100.31
2022-08-22T20:23:31.985Z,98092.59
2022-08-22T20:25:59.670Z,98088.31
2022-08-22T20:28:45.829Z,98093.13
2022-08-22T20:31:23.204Z,98094.16
2022-08-22T20:34:01.952Z,98096.56
2022-08-22T20:36:32.273Z,98085.63
2022-08-22T20:39:13.217Z,98095.75
2022-08-22T20:41:49.820Z,98094.69
2022-08-22T20:44:37.712Z,98098.38
2022-08-22T20:47:21.322Z,98092.22
2022-08-22T20:50:10.246Z,98106.09
2022-08-22T20:52:51.937Z,98096.72
2022-08-22T20:55:27.240Z,98095.34
2022-08-22T20:58:21.074Z,98092.84
2022-08-22T21:00:56.827Z,98111.63
2022-08-22T21:03:48.877Z,98102.22
2022-08-22T21:06:34.883Z,98099.50
2022-08-22T21:09:38.645Z,98107.47
2022-08-22T21:12:09.283Z,98107.03
2022-08-22T21:14:44.350Z,98107.09
2022-08-22T21:17:27.261Z,98106.09
2022-08-22T21:19:57.789Z,98104.81
2022-08-22T21:22:32.751Z,98116.00
2022-08-22T21:25:01.320Z,98112.06
2022-08-22T21:27:34.174Z,98111.78
2022-08-22T21:30:09.400Z,98114.44
2022-08-22T21:32:47.970Z,98104.34
2022-08-22T21:35:32.979Z,98121.91
2022-08-22T21:38:01.763Z,98108.06
2022-08-22T21:40:35.443Z,98108.88
2022-08-22T21:43:08.915Z,98118.69
2022-08-22T21:45:38.621Z,98118.72
2022-08-22T21:48:45.937Z,98112.59
2022-08-22T21:51:36.315Z,98118.94
2022-08-22T21:54:24.872Z,98121.06
2022-08-22T21:57:19.128Z,98118.94
2022-08-22T21:59:59.737Z,98121.34
2022-08-22T22:02:37.885Z,98120.28
2022-08-22T22:05:19.405Z,98114.13
2022-08-22T22:07:47.641Z,98122.13
2022-08-22T22:10:18.806Z,98104.81
2022-08-22T22:12:56.561Z,98119.44
2022-08-22T22:15:28.832Z,98111.44
2022-08-22T22:17:55.944Z,98106.63
2022-08-22T22:20:27.574Z,98122.59
2022-08-22T22:22:56.062Z,98121.22
2022-08-22T22:25:41.388Z,98124.66
2022-08-22T22:28:15.780Z,98129.13
2022-08-22T22:30:44.223Z,98140.06
2022-08-22T22:33:12.257Z,98125.84
2022-08-22T22:35:40.897Z,98130.59
2022-08-22T22:38:09.311Z,98131.41
2022-08-22T22:40:36.422Z,98138.03
2022-08-22T22:43:04.921Z,98146.47
2022-08-22T22:45:31.531Z,98141.31
2022-08-22T22:47:58.390Z,98132.50
2022-08-22T22:50:25.590Z,98130.94
2022-08-22T22:52:54.098Z,98131.97
2022-08-22T22:55:24.236Z,98136.28
2022-08-22T22:57:59.072Z,98131.28
2022-08-22T23:00:33.122Z,98138.19
2022-08-22T23:03:04.704Z,98129.88
2022-08-22T23:05:33.406Z,98137.44
2022-08-22T23:08:01.901Z,98134.56
2022-08-22T23:10:31.406Z,98138.03
2022-08-22T23:12:59.455Z,98143.06
2022-08-22T23:15:27.221Z,98145.03
2022-08-22T23:17:54.243Z,98143.31
2022-08-22T23:20:20.941Z,98133.75
2022-08-22T23:22:48.256Z,98133.03
2022-08-22T23:25:15.244Z,98133.91
2022-08-22T23:27:42.458Z,98130.97
2022-08-22T23:30:10.873Z,98136.38
2022-08-22T23:32:37.929Z,98125.88
2022-08-22T23:35:06.282Z,98133.28
2022-08-22T23:37:33.544Z,98131.19
2022-08-22T23:40:01.076Z,98139.16
2022-08-22T23:42:29.337Z,98134.84
2022-08-22T23:44:56.314Z,98139.59
2022-08-22T23:47:22.972Z,98136.47
2022-08-22T23:49:50.120Z,98139.13
2022-08-22T23:52:17.887Z,98134.63
2022-08-22T23:54:44.531Z,98140.53
2022-08-22T23:57:11.946Z,98143.25
2022-08-22T23:59:46.501Z,98141.97
